createdAt,value
2023-05-17T00:00:24.833Z,0
2023-05-17T00:01:59.026Z,0
2023-05-17T00:03:15.215Z,0
2023-05-17T00:04:57.000Z,0
2023-05-17T00:05:47.614Z,0
2023-05-17T00:07:03.000Z,0
2023-05-17T00:08:01.993Z,0
2023-05-17T00:09:36.186Z,0
2023-05-17T00:10:52.000Z,0
2023-05-17T00:12:08.000Z,0
2023-05-17T00:13:24.766Z,0
2023-05-17T00:14:40.958Z,0
2023-05-17T00:15:57.151Z,0
2023-05-17T00:17:13.360Z,0
2023-05-17T00:18:28.558Z,0
2023-05-17T00:19:26.748Z,0
2023-05-17T00:20:42.941Z,0
2023-05-17T00:22:17.000Z,0
2023-05-17T00:23:33.328Z,0
2023-05-17T00:24:49.527Z,0
2023-05-17T00:26:05.000Z,0
2023-05-17T00:27:03.906Z,0
2023-05-17T00:28:20.099Z,0
2023-05-17T00:29:54.292Z,0
2023-05-17T00:30:52.486Z,0
2023-05-17T00:32:52.000Z,0
2023-05-17T00:33:24.872Z,0
2023-05-17T00:35:25.000Z,0
2023-05-17T00:36:15.382Z,0
2023-05-17T00:37:31.576Z,0
2023-05-17T00:38:47.777Z,0
2023-05-17T00:40:03.966Z,0
2023-05-17T00:41:02.159Z,0
2023-05-17T00:43:02.000Z,0
2023-05-17T00:43:34.547Z,0
2023-05-17T00:45:08.742Z,0
2023-05-17T00:46:06.936Z,0
2023-05-17T00:47:41.131Z,0
2023-05-17T00:48:57.000Z,0
2023-05-17T00:50:13.000Z,0
2023-05-17T00:51:11.714Z,0
2023-05-17T00:52:44.000Z,0
2023-05-17T00:53:43.119Z,0
2023-05-17T00:55:17.311Z,0
2023-05-17T00:56:33.507Z,0
2023-05-17T00:57:49.000Z,0
2023-05-17T00:59:05.897Z,0
2023-05-17T01:00:22.000Z,0
2023-05-17T01:01:38.289Z,0
2023-05-17T01:02:54.486Z,0
2023-05-17T01:04:10.678Z,0
2023-05-17T01:05:26.000Z,0
2023-05-17T01:06:43.070Z,0
2023-05-17T01:07:59.000Z,0
2023-05-17T01:09:15.467Z,0
2023-05-17T01:10:31.658Z,0
2023-05-17T01:11:29.849Z,0
2023-05-17T01:13:03.000Z,0
2023-05-17T01:14:19.000Z,0
2023-05-17T01:15:35.000Z,0
2023-05-17T01:16:33.644Z,0
2023-05-17T01:18:07.847Z,0
2023-05-17T01:19:06.035Z,0
2023-05-17T01:21:06.000Z,0
2023-05-17T01:21:56.437Z,0
2023-05-17T01:23:12.000Z,0
2023-05-17T01:24:10.815Z,0
2023-05-17T01:25:45.010Z,0
2023-05-17T01:27:01.205Z,0
2023-05-17T01:27:59.401Z,0
2023-05-17T01:29:15.595Z,0
2023-05-17T01:30:49.000Z,0
2023-05-17T01:32:05.985Z,0
2023-05-17T01:33:22.180Z,0
2023-05-17T01:34:20.376Z,0
2023-05-17T01:35:36.571Z,0
2023-05-17T01:36:52.766Z,0
2023-05-17T01:38:25.000Z,0
2023-05-17T01:39:42.000Z,0
2023-05-17T01:40:58.371Z,0
2023-05-17T01:41:56.561Z,0
2023-05-17T01:43:30.000Z,0
2023-05-17T01:44:46.960Z,0
2023-05-17T01:46:03.000Z,0
2023-05-17T01:47:19.340Z,0
2023-05-17T01:48:35.542Z,0
2023-05-17T01:49:33.731Z,0
2023-05-17T01:51:07.000Z,0
2023-05-17T01:52:24.121Z,0
2023-05-17T01:53:40.000Z,0
2023-05-17T01:54:38.512Z,0
2023-05-17T01:56:11.723Z,0
2023-05-17T01:57:09.917Z,0
2023-05-17T01:58:44.112Z,0
2023-05-17T01:59:42.307Z,0
2023-05-17T02:01:16.000Z,0
2023-05-17T02:02:58.000Z,0
2023-05-17T02:03:48.903Z,0
2023-05-17T02:05:05.000Z,0
2023-05-17T02:06:21.283Z,0
2023-05-17T02:07:37.480Z,0
2023-05-17T02:08:53.000Z,0
2023-05-17T02:09:51.867Z,0
2023-05-17T02:11:26.063Z,0
2023-05-17T02:12:42.257Z,0
2023-05-17T02:13:40.453Z,0
2023-05-17T02:14:56.647Z,0
2023-05-17T02:16:29.864Z,0
2023-05-17T02:17:46.059Z,0
2023-05-17T02:19:02.000Z,0
2023-05-17T02:20:00.449Z,0
2023-05-17T02:21:34.644Z,0
2023-05-17T02:22:32.839Z,0
2023-05-17T02:24:07.000Z,0
2023-05-17T02:25:05.229Z,0
2023-05-17T02:26:39.000Z,0
2023-05-17T02:27:37.619Z,0
2023-05-17T02:29:11.000Z,0
2023-05-17T02:30:28.009Z,0
2023-05-17T02:31:44.000Z,0
2023-05-17T02:33:00.414Z,0
2023-05-17T02:34:16.592Z,0
2023-05-17T02:35:13.805Z,0
2023-05-17T02:36:48.000Z,0
2023-05-17T02:37:46.196Z,4
2023-05-17T02:39:20.391Z,4
2023-05-17T02:40:36.000Z,4
2023-05-17T02:41:52.781Z,0
2023-05-17T02:43:08.976Z,4
2023-05-17T02:44:25.180Z,4
2023-05-17T02:45:41.367Z,4
2023-05-17T02:46:57.000Z,4
2023-05-17T02:48:13.000Z,8
2023-05-17T02:49:29.952Z,4
2023-05-17T02:50:46.000Z,8
2023-05-17T02:52:02.000Z,8
2023-05-17T02:53:18.537Z,8
2023-05-17T02:54:33.761Z,12
2023-05-17T02:55:49.943Z,16
2023-05-17T02:57:06.000Z,16
2023-05-17T02:58:22.333Z,20
2023-05-17T02:59:38.000Z,20
2023-05-17T03:00:36.723Z,24
2023-05-17T03:02:10.918Z,28
2023-05-17T03:03:27.113Z,36
2023-05-17T03:04:43.316Z,40
2023-05-17T03:05:59.509Z,48
2023-05-17T03:07:15.699Z,56
2023-05-17T03:08:31.893Z,60
2023-05-17T03:09:48.000Z,72
2023-05-17T03:11:04.289Z,80
2023-05-17T03:12:19.496Z,88
2023-05-17T03:13:17.690Z,100
2023-05-17T03:14:51.000Z,112
2023-05-17T03:16:08.095Z,124
2023-05-17T03:17:24.000Z,132
2023-05-17T03:18:22.470Z,144
2023-05-17T03:19:38.665Z,156
2023-05-17T03:21:12.000Z,164
2023-05-17T03:22:11.056Z,172
2023-05-17T03:23:45.250Z,188
2023-05-17T03:25:01.000Z,200
2023-05-17T03:25:59.640Z,208
2023-05-17T03:27:15.836Z,220
2023-05-17T03:28:31.047Z,232
2023-05-17T03:30:05.242Z,248
2023-05-17T03:31:21.437Z,272
2023-05-17T03:32:37.000Z,296
2023-05-17T03:33:53.827Z,328
2023-05-17T03:35:36.000Z,360
2023-05-17T03:36:08.217Z,392
2023-05-17T03:37:42.421Z,424
2023-05-17T03:38:40.607Z,460
2023-05-17T03:40:14.803Z,500
2023-05-17T03:41:30.999Z,544
2023-05-17T03:42:47.197Z,596
2023-05-17T03:44:03.395Z,652
2023-05-17T03:45:01.583Z,700
2023-05-17T03:46:35.778Z,736
2023-05-17T03:47:51.000Z,776
2023-05-17T03:49:08.182Z,808
2023-05-17T03:50:05.379Z,852
2023-05-17T03:51:21.573Z,892
2023-05-17T03:52:55.000Z,932
2023-05-17T03:53:53.964Z,980
2023-05-17T03:55:28.000Z,1024
2023-05-17T03:56:44.358Z,1068
2023-05-17T03:58:00.558Z,1112
2023-05-17T03:59:16.744Z,1160
2023-05-17T04:00:32.000Z,1204
2023-05-17T04:01:31.134Z,1248
2023-05-17T04:03:05.000Z,1304
2023-05-17T04:04:21.525Z,1352
2023-05-17T04:05:19.720Z,1392
2023-05-17T04:06:35.914Z,1436
2023-05-17T04:08:10.232Z,1476
2023-05-17T04:09:26.431Z,1520
2023-05-17T04:10:42.000Z,1572
2023-05-17T04:11:58.817Z,1724
2023-05-17T04:13:15.022Z,1748
2023-05-17T04:14:31.208Z,1784
2023-05-17T04:16:13.000Z,1828
2023-05-17T04:16:45.597Z,1852
2023-05-17T04:18:19.000Z,1816
2023-05-17T04:19:36.001Z,1776
2023-05-17T04:20:52.000Z,1876
2023-05-17T04:21:50.377Z,2112
2023-05-17T04:23:24.000Z,2108
2023-05-17T04:24:40.767Z,2188
2023-05-17T04:25:56.000Z,2240
2023-05-17T04:27:13.000Z,2284
2023-05-17T04:28:29.355Z,2308
2023-05-17T04:29:26.563Z,2372
2023-05-17T04:31:00.000Z,2408
2023-05-17T04:31:58.954Z,2440
2023-05-17T04:33:33.000Z,2460
2023-05-17T04:34:31.344Z,2476
2023-05-17T04:36:05.551Z,2500
2023-05-17T04:37:21.000Z,2536
2023-05-17T04:38:37.927Z,2580
2023-05-17T04:39:36.124Z,2612
2023-05-17T04:41:10.000Z,2636
2023-05-17T04:42:08.514Z,2288
2023-05-17T04:43:42.717Z,2624
2023-05-17T04:44:58.918Z,2752
2023-05-17T04:45:57.100Z,2792
2023-05-17T04:47:13.294Z,2788
2023-05-17T04:48:47.000Z,2552
2023-05-17T04:50:03.685Z,2636
2023-05-17T04:51:19.000Z,2936
2023-05-17T04:52:36.000Z,2948
2023-05-17T04:53:52.000Z,2960
2023-05-17T04:54:50.465Z,2704
2023-05-17T04:56:24.000Z,3096
2023-05-17T04:57:40.868Z,3132
2023-05-17T04:58:38.067Z,3164
2023-05-17T04:59:54.262Z,3184
2023-05-17T05:01:28.000Z,3232
2023-05-17T05:02:44.652Z,3264
2023-05-17T05:04:00.000Z,3284
2023-05-17T05:05:17.000Z,3288
2023-05-17T05:06:33.240Z,3104
2023-05-17T05:07:31.433Z,3380
2023-05-17T05:09:05.000Z,3424
2023-05-17T05:10:21.834Z,3424
2023-05-17T05:11:38.018Z,3460
2023-05-17T05:12:54.213Z,3496
2023-05-17T05:14:10.417Z,3512
2023-05-17T05:15:25.619Z,3176
2023-05-17T05:16:41.000Z,3536
2023-05-17T05:17:58.000Z,3568
2023-05-17T05:19:14.205Z,3592
2023-05-17T05:20:12.400Z,3612
2023-05-17T05:21:46.604Z,3620
2023-05-17T05:23:02.789Z,3684
2023-05-17T05:24:18.000Z,3532
2023-05-17T05:25:35.186Z,3720
2023-05-17T05:26:51.000Z,3784
2023-05-17T05:28:07.573Z,3900
2023-05-17T05:29:23.772Z,3320
2023-05-17T05:30:39.965Z,3704
2023-05-17T05:31:56.000Z,3932
2023-05-17T05:33:12.372Z,3720
2023-05-17T05:34:28.000Z,3332
2023-05-17T05:35:44.753Z,3384
2023-05-17T05:36:59.962Z,3592
2023-05-17T05:37:58.154Z,3452
2023-05-17T05:39:32.000Z,3396
2023-05-17T05:40:48.000Z,3772
2023-05-17T05:42:04.000Z,3132
2023-05-17T05:43:02.937Z,3248
2023-05-17T05:44:37.133Z,3612
2023-05-17T05:45:35.328Z,3292
2023-05-17T05:47:35.000Z,3804
2023-05-17T05:48:07.719Z,3776
2023-05-17T05:49:41.000Z,4028
2023-05-17T05:50:58.110Z,3568
2023-05-17T05:52:14.000Z,3772
2023-05-17T05:53:30.500Z,3444
2023-05-17T05:54:46.000Z,3496
2023-05-17T05:55:44.891Z,3656
2023-05-17T05:57:18.000Z,4544
2023-05-17T05:58:34.311Z,3776
2023-05-17T05:59:50.000Z,4208
2023-05-17T06:00:48.688Z,3672
2023-05-17T06:02:22.000Z,4180
2023-05-17T06:03:39.079Z,4684
2023-05-17T06:04:55.000Z,3928
2023-05-17T06:06:11.471Z,4824
2023-05-17T06:07:27.679Z,4008
2023-05-17T06:08:25.862Z,4408
2023-05-17T06:10:26.000Z,3652
2023-05-17T06:10:58.252Z,3740
2023-05-17T06:12:32.449Z,4676
2023-05-17T06:13:48.642Z,3596
2023-05-17T06:15:03.865Z,3548
2023-05-17T06:16:02.051Z,3784
2023-05-17T06:17:36.247Z,4328
2023-05-17T06:18:52.442Z,4004
2023-05-17T06:20:08.000Z,3736
2023-05-17T06:21:06.832Z,4712
2023-05-17T06:22:41.039Z,4500
2023-05-17T06:23:57.223Z,4052
2023-05-17T06:25:13.000Z,4316
2023-05-17T06:26:29.613Z,3928
2023-05-17T06:27:45.000Z,3864
2023-05-17T06:28:44.005Z,4052
2023-05-17T06:30:18.201Z,3848
2023-05-17T06:31:33.419Z,4184
2023-05-17T06:33:15.000Z,4844
2023-05-17T06:33:47.809Z,4624
2023-05-17T06:35:22.000Z,4888
2023-05-17T06:36:20.200Z,4588
2023-05-17T06:37:54.396Z,4648
2023-05-17T06:38:52.592Z,4696
2023-05-17T06:40:26.000Z,4312
2023-05-17T06:41:24.982Z,4896
2023-05-17T06:42:59.000Z,5316
2023-05-17T06:44:15.372Z,5260
2023-05-17T06:45:31.585Z,5380
2023-05-17T06:46:29.762Z,5368
2023-05-17T06:48:03.000Z,5456
2023-05-17T06:49:02.154Z,5500
2023-05-17T06:50:36.000Z,5476
2023-05-17T06:51:52.562Z,5492
2023-05-17T06:53:07.000Z,5480
2023-05-17T06:54:23.957Z,5388
2023-05-17T06:55:40.000Z,5340
2023-05-17T06:56:56.000Z,5228
2023-05-17T06:58:12.000Z,5228
2023-05-17T06:59:28.741Z,5200
2023-05-17T07:00:44.940Z,5224
2023-05-17T07:01:43.124Z,5260
2023-05-17T07:03:17.000Z,5300
2023-05-17T07:04:15.514Z,5308
2023-05-17T07:05:49.000Z,5336
2023-05-17T07:07:05.000Z,5396
2023-05-17T07:08:22.110Z,5396
2023-05-17T07:09:37.000Z,5416
2023-05-17T07:10:35.508Z,5028
2023-05-17T07:12:09.716Z,5364
2023-05-17T07:13:25.000Z,5516
2023-05-17T07:14:24.092Z,5612
2023-05-17T07:15:58.000Z,4592
2023-05-17T07:17:14.481Z,5180
2023-05-17T07:18:30.000Z,5840
2023-05-17T07:19:28.871Z,5632
2023-05-17T07:21:03.000Z,4696
2023-05-17T07:22:19.000Z,5520
2023-05-17T07:23:35.457Z,6220
2023-05-17T07:24:33.653Z,5132
2023-05-17T07:26:07.970Z,5288
2023-05-17T07:27:06.165Z,5948
2023-05-17T07:28:40.000Z,4944
2023-05-17T07:29:56.555Z,4696
2023-05-17T07:31:12.000Z,4764
2023-05-17T07:32:10.945Z,4552
2023-05-17T07:34:11.000Z,4428
2023-05-17T07:35:01.335Z,5472
2023-05-17T07:36:17.000Z,5324
2023-05-17T07:37:15.726Z,5688
2023-05-17T07:38:49.000Z,5680
2023-05-17T07:39:48.116Z,5620
2023-05-17T07:41:22.000Z,5664
2023-05-17T07:42:38.507Z,5660
2023-05-17T07:43:54.000Z,4780
2023-05-17T07:44:52.898Z,5780
2023-05-17T07:46:26.000Z,5584
2023-05-17T07:47:42.000Z,4116
2023-05-17T07:48:58.000Z,5296
2023-05-17T07:50:14.696Z,5080
2023-05-17T07:51:30.000Z,5492
2023-05-17T07:52:47.087Z,5412
2023-05-17T07:54:03.283Z,5376
2023-05-17T07:55:01.477Z,5376
2023-05-17T07:56:35.673Z,5384
2023-05-17T07:57:51.866Z,5392
2023-05-17T07:59:08.000Z,5412
2023-05-17T08:00:24.000Z,5412
2023-05-17T08:01:40.000Z,5368
2023-05-17T08:03:21.000Z,5360
2023-05-17T08:03:53.859Z,5412
2023-05-17T08:05:28.072Z,5448
2023-05-17T08:06:44.000Z,5436
2023-05-17T08:08:00.464Z,5584
2023-05-17T08:09:16.643Z,5516
2023-05-17T08:10:32.835Z,5484
2023-05-17T08:11:49.000Z,4236
2023-05-17T08:13:05.000Z,5556
2023-05-17T08:14:21.420Z,4456
2023-05-17T08:15:37.629Z,5412
2023-05-17T08:16:53.000Z,5512
2023-05-17T08:18:10.000Z,5492
2023-05-17T08:19:26.000Z,5488
2023-05-17T08:20:42.403Z,5488
2023-05-17T08:21:57.608Z,5476
2023-05-17T08:23:13.000Z,5524
2023-05-17T08:24:29.998Z,5536
2023-05-17T08:25:46.000Z,5416
2023-05-17T08:27:02.000Z,5520
2023-05-17T08:28:18.583Z,4780
2023-05-17T08:29:34.779Z,5560
2023-05-17T08:30:50.984Z,5576
2023-05-17T08:32:07.000Z,5568
2023-05-17T08:33:23.382Z,5540
2023-05-17T08:34:39.559Z,5532
2023-05-17T08:35:55.766Z,5496
2023-05-17T08:37:11.949Z,5460
2023-05-17T08:38:28.000Z,5424
2023-05-17T08:39:44.349Z,5456
2023-05-17T08:41:00.000Z,5464
2023-05-17T08:42:16.729Z,5452
2023-05-17T08:43:14.924Z,5492
2023-05-17T08:44:49.000Z,5460
2023-05-17T08:45:47.314Z,5440
2023-05-17T08:47:20.539Z,5424
2023-05-17T08:48:36.736Z,5428
2023-05-17T08:50:19.000Z,5428
2023-05-17T08:51:09.111Z,5424
2023-05-17T08:52:25.000Z,5396
2023-05-17T08:53:41.501Z,5540
2023-05-17T08:54:57.000Z,5424
2023-05-17T08:56:13.000Z,5404
2023-05-17T08:57:30.000Z,5428
2023-05-17T08:58:46.296Z,5492
2023-05-17T09:00:02.000Z,5468
2023-05-17T09:01:00.673Z,5416
2023-05-17T09:02:34.000Z,5388
2023-05-17T09:03:51.063Z,5480
2023-05-17T09:05:07.258Z,5360
2023-05-17T09:06:23.000Z,5372
2023-05-17T09:07:39.000Z,5396
2023-05-17T09:08:37.846Z,5348
2023-05-17T09:10:12.052Z,5360
2023-05-17T09:11:28.248Z,5820
2023-05-17T09:12:43.000Z,5352
2023-05-17T09:13:59.643Z,5468
2023-05-17T09:15:15.000Z,5828
2023-05-17T09:16:32.000Z,5380
2023-05-17T09:17:48.239Z,5448
2023-05-17T09:19:04.000Z,5460
2023-05-17T09:20:20.000Z,5488
2023-05-17T09:21:36.000Z,5536
2023-05-17T09:22:53.000Z,5548
2023-05-17T09:24:09.206Z,5592
2023-05-17T09:25:25.401Z,5864
2023-05-17T09:26:23.596Z,5620
2023-05-17T09:27:57.000Z,5928
2023-05-17T09:29:13.986Z,5632
2023-05-17T09:30:30.182Z,5608
2023-05-17T09:31:46.381Z,5616
2023-05-17T09:33:01.590Z,5624
2023-05-17T09:34:17.795Z,5656
2023-05-17T09:35:33.979Z,5676
2023-05-17T09:36:50.180Z,5648
2023-05-17T09:38:06.000Z,5660
2023-05-17T09:39:48.000Z,5648
2023-05-17T09:40:38.000Z,5656
2023-05-17T09:41:54.000Z,5684
2023-05-17T09:43:11.000Z,6352
2023-05-17T09:44:27.000Z,5644
2023-05-17T09:45:43.541Z,5644
2023-05-17T09:46:59.755Z,5648
2023-05-17T09:48:15.946Z,5640
2023-05-17T09:49:32.144Z,5868
2023-05-17T09:50:47.000Z,5692
2023-05-17T09:52:03.533Z,6328
2023-05-17T09:53:19.000Z,5784
2023-05-17T09:54:35.923Z,5716
2023-05-17T09:55:52.118Z,5716
2023-05-17T09:57:08.312Z,5740
2023-05-17T09:58:24.000Z,5800
2023-05-17T09:59:22.701Z,5844
2023-05-17T10:00:56.896Z,5776
2023-05-17T10:01:55.090Z,5776
2023-05-17T10:03:29.000Z,5832
2023-05-17T10:04:27.482Z,5844
2023-05-17T10:06:01.000Z,5900
2023-05-17T10:07:17.000Z,5900
2023-05-17T10:08:34.067Z,5904
2023-05-17T10:09:50.260Z,6076
2023-05-17T10:11:06.454Z,6580
2023-05-17T10:12:22.650Z,6000
2023-05-17T10:13:38.000Z,5908
2023-05-17T10:14:55.000Z,5972
2023-05-17T10:16:11.000Z,6020
2023-05-17T10:17:27.424Z,5976
2023-05-17T10:18:43.610Z,6016
2023-05-17T10:19:58.819Z,6040
2023-05-17T10:21:15.000Z,6244
2023-05-17T10:22:31.000Z,6184
2023-05-17T10:23:47.000Z,6128
2023-05-17T10:25:03.604Z,6124
2023-05-17T10:26:19.784Z,6356
2023-05-17T10:27:35.985Z,6188
2023-05-17T10:28:52.172Z,6204
2023-05-17T10:29:50.362Z,6216
2023-05-17T10:31:24.000Z,6312
2023-05-17T10:32:40.748Z,6256
2023-05-17T10:33:56.945Z,6248
2023-05-17T10:35:13.000Z,6288
2023-05-17T10:36:54.000Z,6680
2023-05-17T10:37:26.535Z,6348
2023-05-17T10:39:00.728Z,6364
2023-05-17T10:40:16.000Z,6380
2023-05-17T10:41:33.000Z,6432
2023-05-17T10:42:49.306Z,6728
2023-05-17T10:44:05.000Z,6424
2023-05-17T10:45:21.000Z,6572
2023-05-17T10:46:37.000Z,6540
2023-05-17T10:47:36.078Z,6520
2023-05-17T10:49:10.277Z,6044
2023-05-17T10:50:08.464Z,6548
2023-05-17T10:51:42.000Z,6664
2023-05-17T10:53:25.000Z,6600
2023-05-17T10:54:15.000Z,6624
2023-05-17T10:55:31.244Z,6796
2023-05-17T10:56:46.450Z,6704
2023-05-17T10:58:02.644Z,7064
2023-05-17T10:59:00.836Z,6752
2023-05-17T11:00:17.029Z,6764
2023-05-17T11:01:51.000Z,6792
2023-05-17T11:02:49.415Z,6936
2023-05-17T11:04:23.617Z,4276
2023-05-17T11:05:39.812Z,6536
2023-05-17T11:06:56.000Z,6852
2023-05-17T11:08:12.190Z,6944
2023-05-17T11:09:28.000Z,6936
2023-05-17T11:10:44.000Z,6944
2023-05-17T11:12:00.000Z,7008
2023-05-17T11:13:16.000Z,7304
2023-05-17T11:14:59.000Z,7004
2023-05-17T11:15:31.344Z,6956
2023-05-17T11:17:05.000Z,7024
2023-05-17T11:18:21.736Z,7280
2023-05-17T11:19:37.922Z,7060
2023-05-17T11:20:35.132Z,7384
2023-05-17T11:22:09.000Z,7208
2023-05-17T11:23:25.000Z,5008
2023-05-17T11:24:41.000Z,7536
2023-05-17T11:25:57.000Z,7444
2023-05-17T11:27:14.000Z,7824
2023-05-17T11:28:30.000Z,7560
2023-05-17T11:29:28.484Z,7588
2023-05-17T11:30:44.677Z,7712
2023-05-17T11:32:18.000Z,7656
2023-05-17T11:33:17.063Z,7700
2023-05-17T11:34:51.268Z,7768
2023-05-17T11:37:23.649Z,7904
2023-05-17T11:40:54.342Z,8360
2023-05-17T11:42:28.540Z,8304
2023-05-17T11:43:44.877Z,8140
2023-05-17T11:44:42.095Z,8252
2023-05-17T11:46:16.305Z,8312
2023-05-17T11:51:20.091Z,9952
2023-05-17T11:53:34.461Z,10172
2023-05-17T11:55:08.000Z,10076
2023-05-17T11:56:06.848Z,9768
2023-05-17T11:57:41.053Z,9740
2023-05-17T11:58:57.244Z,9708
2023-05-17T12:00:13.000Z,9448
2023-05-17T12:01:29.000Z,8932
2023-05-17T12:02:45.000Z,8492
2023-05-17T12:03:44.005Z,8432
2023-05-17T12:05:18.000Z,8320
2023-05-17T12:06:34.000Z,7976
2023-05-17T12:07:50.585Z,8504
2023-05-17T12:08:48.778Z,8228
2023-05-17T12:10:22.000Z,8096
2023-05-17T12:11:38.196Z,7980
2023-05-17T12:12:53.411Z,7976
2023-05-17T12:14:09.000Z,8016
2023-05-17T12:15:51.000Z,8112
2023-05-17T12:16:41.000Z,7956
2023-05-17T12:17:58.000Z,7856
2023-05-17T12:18:56.364Z,7488
2023-05-17T12:20:30.570Z,8208
2023-05-17T12:21:46.000Z,7920
2023-05-17T12:22:44.943Z,7944
2023-05-17T12:24:19.136Z,7976
2023-05-17T12:25:35.000Z,7968
2023-05-17T12:26:51.000Z,7920
2023-05-17T12:28:07.715Z,8136
2023-05-17T12:29:05.908Z,7604
2023-05-17T12:30:40.112Z,7024
2023-05-17T12:31:56.301Z,6420
2023-05-17T12:33:12.000Z,6180
2023-05-17T12:34:28.682Z,6152
2023-05-17T12:35:43.898Z,6112
2023-05-17T12:36:42.092Z,6092
2023-05-17T12:38:16.301Z,6060
2023-05-17T12:39:32.477Z,6072
2023-05-17T12:40:48.681Z,6052
2023-05-17T12:42:03.000Z,6068
2023-05-17T12:43:20.092Z,6336
2023-05-17T12:44:18.264Z,6248
2023-05-17T12:45:52.000Z,6132
2023-05-17T12:47:08.652Z,6068
2023-05-17T12:48:24.000Z,6232
2023-05-17T12:49:41.000Z,6080
2023-05-17T12:50:57.000Z,6084
2023-05-17T12:52:12.447Z,6120
2023-05-17T12:53:28.000Z,6120
2023-05-17T12:54:44.000Z,6176
2023-05-17T12:56:01.000Z,6172
2023-05-17T12:57:17.000Z,6488
2023-05-17T12:58:33.423Z,6392
2023-05-17T12:59:31.725Z,6260
2023-05-17T13:01:05.000Z,6324
2023-05-17T13:02:22.116Z,6364
2023-05-17T13:03:38.304Z,6392
2023-05-17T13:04:54.497Z,6452
2023-05-17T13:06:10.690Z,6532
2023-05-17T13:07:26.890Z,6572
2023-05-17T13:08:43.000Z,6608
2023-05-17T13:09:41.269Z,6652
2023-05-17T13:11:15.000Z,6696
2023-05-17T13:12:31.000Z,6812
2023-05-17T13:13:47.860Z,6852
2023-05-17T13:15:04.000Z,7164
2023-05-17T13:16:19.250Z,8472
2023-05-17T13:17:35.000Z,9232
2023-05-17T13:18:51.000Z,9748
2023-05-17T13:19:49.828Z,10408
2023-05-17T13:21:24.000Z,11076
2023-05-17T13:22:21.239Z,11932
2023-05-17T13:23:55.000Z,13984
2023-05-17T13:25:11.000Z,19968
2023-05-17T13:26:27.000Z,20832
2023-05-17T13:27:26.012Z,7564
2023-05-17T13:28:59.222Z,13952
2023-05-17T13:30:15.000Z,11832
2023-05-17T13:31:31.607Z,13472
2023-05-17T13:32:47.000Z,13452
2023-05-17T13:34:04.000Z,12520
2023-05-17T13:35:20.189Z,11740
2023-05-17T13:36:36.383Z,11444
2023-05-17T13:37:52.000Z,11460
2023-05-17T13:39:08.770Z,11624
2023-05-17T13:40:06.961Z,11144
2023-05-17T13:41:41.000Z,10904
2023-05-17T13:42:57.000Z,10952
2023-05-17T13:44:13.000Z,11048
2023-05-17T13:45:28.754Z,10408
2023-05-17T13:46:44.942Z,10284
2023-05-17T13:48:01.000Z,10624
2023-05-17T13:49:17.000Z,10992
2023-05-17T13:50:33.683Z,11260
2023-05-17T13:51:48.878Z,10504
2023-05-17T13:52:47.070Z,10308
2023-05-17T13:54:21.269Z,9012
2023-05-17T13:55:37.000Z,8252
2023-05-17T13:56:53.000Z,8148
2023-05-17T13:58:09.000Z,8080
2023-05-17T13:59:26.033Z,8000
2023-05-17T14:00:24.226Z,7948
2023-05-17T14:01:58.000Z,7900
2023-05-17T14:03:14.622Z,8136
2023-05-17T14:04:30.000Z,7908
2023-05-17T14:05:47.003Z,7704
2023-05-17T14:07:03.194Z,7888
2023-05-17T14:08:18.000Z,8096
2023-05-17T14:09:34.000Z,7976
2023-05-17T14:10:50.000Z,8000
2023-05-17T14:12:06.000Z,8240
2023-05-17T14:13:23.184Z,8296
2023-05-17T14:14:39.376Z,8264
2023-05-17T14:15:55.565Z,8336
2023-05-17T14:17:10.000Z,8388
2023-05-17T14:18:26.977Z,8568
2023-05-17T14:19:43.000Z,8392
2023-05-17T14:20:59.000Z,8784
2023-05-17T14:22:15.684Z,8676
2023-05-17T14:23:31.872Z,8808
2023-05-17T14:24:48.000Z,8720
2023-05-17T14:25:46.256Z,8800
2023-05-17T14:27:20.000Z,8972
2023-05-17T14:28:18.643Z,9268
2023-05-17T14:29:52.000Z,9320
2023-05-17T14:31:09.038Z,9548
2023-05-17T14:32:25.000Z,9656
2023-05-17T14:33:41.417Z,10012
2023-05-17T14:34:57.000Z,10016
2023-05-17T14:35:55.804Z,10160
2023-05-17T14:37:30.012Z,10332
2023-05-17T14:38:27.206Z,10360
2023-05-17T14:40:01.000Z,10592
2023-05-17T14:41:17.600Z,10496
2023-05-17T14:42:32.814Z,10768
2023-05-17T14:43:31.007Z,10896
2023-05-17T14:45:05.208Z,10876
2023-05-17T14:46:21.418Z,11116
2023-05-17T14:48:03.000Z,11276
2023-05-17T14:48:53.000Z,11512
2023-05-17T14:50:10.000Z,10876
2023-05-17T14:51:26.312Z,11784
2023-05-17T14:52:42.511Z,10564
2023-05-17T14:53:39.713Z,7992
2023-05-17T14:55:13.000Z,9220
2023-05-17T14:56:30.101Z,12128
2023-05-17T14:57:46.294Z,12004
2023-05-17T14:59:02.488Z,12192
2023-05-17T15:00:18.699Z,12200
2023-05-17T15:01:34.874Z,7852
2023-05-17T15:02:51.000Z,7628
2023-05-17T15:03:49.262Z,7592
2023-05-17T15:05:23.000Z,8444
2023-05-17T15:06:39.649Z,8892
2023-05-17T15:07:55.850Z,12028
2023-05-17T15:08:54.035Z,8080
2023-05-17T15:10:27.000Z,7988
2023-05-17T15:11:43.000Z,8100
2023-05-17T15:12:59.643Z,8416
2023-05-17T15:13:56.845Z,12828
2023-05-17T15:15:31.044Z,10328
2023-05-17T15:16:29.231Z,9064
2023-05-17T15:18:03.000Z,13508
2023-05-17T15:19:19.618Z,9736
2023-05-17T15:20:35.000Z,9336
2023-05-17T15:21:34.004Z,11676
2023-05-17T15:23:08.207Z,8220
2023-05-17T15:24:24.391Z,9780
2023-05-17T15:25:40.000Z,9308
2023-05-17T15:26:38.777Z,8516
2023-05-17T15:28:12.000Z,9232
2023-05-17T15:29:11.163Z,13384
2023-05-17T15:30:45.357Z,13484
2023-05-17T15:32:00.000Z,14048
2023-05-17T15:33:16.000Z,13952
2023-05-17T15:34:14.953Z,13632
2023-05-17T15:35:49.000Z,13604
2023-05-17T15:37:05.341Z,9200
2023-05-17T15:38:03.534Z,13432
2023-05-17T15:39:37.729Z,8632
2023-05-17T15:40:53.939Z,9136
2023-05-17T15:42:10.119Z,9216
2023-05-17T15:43:26.000Z,12440
2023-05-17T15:44:24.501Z,13944
2023-05-17T15:45:58.000Z,12612
2023-05-17T15:46:56.889Z,13236
2023-05-17T15:48:30.000Z,12764
2023-05-17T15:49:46.292Z,13408
2023-05-17T15:51:02.485Z,12936
2023-05-17T15:52:00.678Z,14356
2023-05-17T15:53:34.875Z,14532
2023-05-17T15:54:33.064Z,14816
2023-05-17T15:56:07.257Z,11428
2023-05-17T15:57:23.464Z,14848
2023-05-17T15:58:39.000Z,14896
2023-05-17T15:59:37.835Z,14820
2023-05-17T16:01:12.000Z,14924
2023-05-17T16:02:28.000Z,14504
2023-05-17T16:03:44.413Z,15260
2023-05-17T16:05:00.606Z,12424
2023-05-17T16:06:16.000Z,15400
2023-05-17T16:07:33.000Z,14996
2023-05-17T16:08:49.183Z,14636
2023-05-17T16:10:04.392Z,14584
2023-05-17T16:11:20.585Z,15136
2023-05-17T16:12:18.778Z,15612
2023-05-17T16:13:52.000Z,16448
2023-05-17T16:15:09.000Z,15236
2023-05-17T16:16:25.000Z,14900
2023-05-17T16:17:23.548Z,16400
2023-05-17T16:18:57.758Z,15068
2023-05-17T16:19:55.934Z,15056
2023-05-17T16:21:30.000Z,14896
2023-05-17T16:22:28.319Z,14348
2023-05-17T16:24:02.517Z,14232
2023-05-17T16:25:18.712Z,13900
2023-05-17T16:26:15.913Z,13308
2023-05-17T16:27:50.105Z,13320
2023-05-17T16:29:06.000Z,13244
2023-05-17T16:30:04.490Z,13108
2023-05-17T16:31:20.682Z,13072
2023-05-17T16:32:36.875Z,12996
2023-05-17T16:33:53.068Z,13064
2023-05-17T16:35:09.261Z,13188
2023-05-17T16:36:43.000Z,12984
2023-05-17T16:37:41.646Z,13156
2023-05-17T16:39:15.839Z,13188
2023-05-17T16:40:32.031Z,13356
2023-05-17T16:41:48.000Z,13344
2023-05-17T16:42:46.417Z,13468
2023-05-17T16:44:20.609Z,13644
2023-05-17T16:45:18.802Z,13708
2023-05-17T16:46:52.000Z,13768
2023-05-17T16:48:08.219Z,13936
2023-05-17T16:49:24.000Z,14056
2023-05-17T16:50:40.589Z,13544
2023-05-17T16:51:56.000Z,15292
2023-05-17T16:53:12.000Z,24864
2023-05-17T16:54:29.000Z,49600
2023-05-17T16:55:27.360Z,54080
2023-05-17T16:57:01.553Z,50816
2023-05-17T16:57:59.745Z,56640
2023-05-17T16:59:33.000Z,56832
2023-05-17T17:00:50.000Z,56160
2023-05-17T17:01:48.324Z,56640
2023-05-17T17:03:04.516Z,55680
2023-05-17T17:04:37.731Z,53120
2023-05-17T17:05:53.917Z,52800
2023-05-17T17:07:10.000Z,52096
2023-05-17T17:08:52.000Z,52096
2023-05-17T17:09:42.000Z,51904
2023-05-17T17:10:58.000Z,49888
2023-05-17T17:12:14.880Z,13256
2023-05-17T17:13:13.073Z,17088
2023-05-17T17:14:47.000Z,11828
2023-05-17T17:15:45.458Z,30752